Time;durP1;ratioP1;P1;durP2;ratioP2;P2;SDS_P1;SDS_P2;PMS_P1;PMS_P2;Temp;Humidity;BMP_temperature;BMP_pressure;BME280_temperature;BME280_humidity;BME280_pressure;Samples;Min_cycle;Max_cycle;Signal;HPM_P1;HPM_P2
2024/02/05 00:00:47;;;;;;;3.00;1.60;;;;;;;10.14;100.00;101562.53;2086612;28;20212;-64
2024/02/05 00:01:49;;;;;;;2.90;1.67;;;;;;;10.35;100.00;101590.06;2087702;28;20743;-64
2024/02/05 00:02:49;;;;;;;4.10;1.47;;;;;;;10.08;100.00;101576.00;2088290;28;20183;-65
2024/02/05 00:03:50;;;;;;;2.57;1.60;;;;;;;10.42;100.00;101595.56;2087879;28;20410;-63
2024/02/05 00:04:50;;;;;;;2.67;1.60;;;;;;;10.43;100.00;101592.38;2087661;28;20201;-64
2024/02/05 00:05:51;;;;;;;3.33;1.87;;;;;;;10.47;100.00;101586.81;2087267;28;20200;-64
2024/02/05 00:06:51;;;;;;;2.70;1.77;;;;;;;10.46;100.00;101583.22;2085294;28;20287;-64
2024/02/05 00:07:51;;;;;;;2.70;1.40;;;;;;;10.48;100.00;101585.59;2087015;28;20246;-64
2024/02/05 00:08:52;;;;;;;1.73;1.30;;;;;;;10.18;100.00;101541.13;2087376;28;20189;-64
2024/02/05 00:09:52;;;;;;;2.67;1.40;;;;;;;10.47;100.00;101590.38;2087527;28;20184;-64
2024/02/05 00:10:53;;;;;;;2.30;1.23;;;;;;;10.28;100.00;101559.63;2088423;28;20262;-65
2024/02/05 00:11:53;;;;;;;4.30;1.53;;;;;;;10.40;100.00;101582.09;2088423;28;20185;-64
2024/02/05 00:12:54;;;;;;;2.53;1.60;;;;;;;10.42;100.00;101581.69;2086969;28;20708;-64
2024/02/05 00:13:54;;;;;;;2.17;1.27;;;;;;;10.38;100.00;101562.34;2087702;28;20199;-64
2024/02/05 00:14:55;;;;;;;3.17;1.30;;;;;;;10.11;100.00;101530.91;2086996;28;20224;-64
2024/02/05 00:15:55;;;;;;;3.97;1.50;;;;;;;10.45;100.00;101583.66;2086802;28;20200;-64
2024/02/05 00:16:56;;;;;;;3.10;1.40;;;;;;;10.49;100.00;101585.19;2087176;28;20258;-64
2024/02/05 00:17:57;;;;;;;2.03;1.47;;;;;;;10.51;100.00;101582.78;2087030;28;20242;-64
2024/02/05 00:18:57;;;;;;;2.87;1.37;;;;;;;10.52;100.00;101584.41;2088323;28;20259;-64
2024/02/05 00:19:58;;;;;;;2.53;1.53;;;;;;;10.54;100.00;101583.97;2089733;28;20184;-64
2024/02/05 00:20:58;;;;;;;4.00;1.77;;;;;;;10.57;100.00;101580.38;2088403;28;20230;-64
2024/02/05 00:21:59;;;;;;;2.13;1.47;;;;;;;10.58;100.00;101579.97;2088279;28;20188;-65
2024/02/05 00:22:59;;;;;;;2.53;1.50;;;;;;;10.60;100.00;101574.81;2089589;28;20189;-64
2024/02/05 00:24:00;;;;;;;3.87;1.77;;;;;;;10.56;100.00;101574.03;2089133;28;20226;-64
2024/02/05 00:25:01;;;;;;;3.30;1.60;;;;;;;10.62;100.00;101575.19;2089194;28;20583;-64
2024/02/05 00:26:03;;;;;;;3.70;1.70;;;;;;;10.62;100.00;101564.13;2088440;28;20181;-64
2024/02/05 00:27:03;;;;;;;2.00;1.40;;;;;;;10.63;100.00;101562.91;2088521;28;20246;-64
2024/02/05 00:28:04;;;;;;;3.57;1.27;;;;;;;10.69;100.00;101557.69;2089587;28;20510;-64
2024/02/05 00:29:08;;;;;;;2.53;1.53;;;;;;;10.67;100.00;101549.00;2088373;28;20195;-64
2024/02/05 00:30:10;;;;;;;2.33;1.43;;;;;;;10.67;100.00;101555.31;2088479;28;20188;-64
2024/02/05 00:31:10;;;;;;;3.00;1.77;;;;;;;10.70;100.00;101551.75;2088328;28;20431;-64
2024/02/05 00:32:11;;;;;;;2.43;1.43;;;;;;;10.24;100.00;101478.56;2088749;28;21028;-64
2024/02/05 00:33:11;;;;;;;3.67;1.80;;;;;;;10.68;100.00;101551.38;2088537;28;20192;-64
2024/02/05 00:34:12;;;;;;;3.57;1.30;;;;;;;10.63;100.00;101562.91;2088755;28;20188;-65
2024/02/05 00:35:12;;;;;;;2.87;1.27;;;;;;;10.65;100.00;101554.97;2087713;28;20172;-65
2024/02/05 00:36:13;;;;;;;3.10;1.50;;;;;;;10.66;100.00;101551.00;2088963;28;20188;-64
2024/02/05 00:37:13;;;;;;;3.20;1.50;;;;;;;10.55;100.00;101533.66;2089230;28;20259;-64
2024/02/05 00:38:14;;;;;;;2.43;1.43;;;;;;;10.64;100.00;101547.03;2088373;28;20222;-64
2024/02/05 00:39:15;;;;;;;2.70;1.57;;;;;;;10.60;100.00;101551.88;2088669;28;20279;-64
2024/02/05 00:40:16;;;;;;;3.23;1.77;;;;;;;10.43;100.00;101520.34;2089177;28;20664;-64
2024/02/05 00:41:17;;;;;;;2.43;1.50;;;;;;;10.58;100.00;101552.25;2088152;28;20473;-64
2024/02/05 00:42:17;;;;;;;2.37;1.10;;;;;;;10.59;100.00;101558.56;2088099;28;20975;-65
2024/02/05 00:43:19;;;;;;;3.50;1.60;;;;;;;10.57;100.00;101542.38;2089029;28;20211;-64
2024/02/05 00:44:19;;;;;;;2.33;1.50;;;;;;;10.29;100.00;101525.19;2088258;28;20184;-64
2024/02/05 00:45:20;;;;;;;3.00;1.50;;;;;;;10.29;100.00;101506.59;2088718;28;20851;-64
2024/02/05 00:46:26;;;;;;;2.77;1.60;;;;;;;10.52;100.00;101550.34;2089457;28;20677;-64
2024/02/05 00:47:27;;;;;;;2.93;1.80;;;;;;;10.51;100.00;101535.69;2088636;28;20741;-64
2024/02/05 00:48:29;;;;;;;2.77;1.63;;;;;;;10.49;100.00;101529.78;2088311;28;20810;-64
2024/02/05 00:49:29;;;;;;;3.03;1.20;;;;;;;10.47;100.00;101545.25;2088295;28;20278;-64
2024/02/05 00:50:30;;;;;;;2.33;1.23;;;;;;;10.29;100.00;101500.25;2088480;28;20828;-64
2024/02/05 00:51:30;;;;;;;3.80;1.67;;;;;;;10.43;100.00;101522.31;2089012;28;20726;-64
2024/02/05 00:52:32;;;;;;;2.57;1.40;;;;;;;10.41;100.00;101519.16;2089089;28;20192;-64
2024/02/05 00:53:32;;;;;;;4.13;2.10;;;;;;;10.06;100.00;101505.59;2088500;28;20198;-64
2024/02/05 00:54:33;;;;;;;2.23;1.60;;;;;;;10.40;100.00;101523.13;2088196;28;20970;-65
2024/02/05 00:55:33;;;;;;;3.80;1.63;;;;;;;10.40;100.00;101523.91;2089249;28;20196;-64
2024/02/05 00:56:34;;;;;;;5.57;1.63;;;;;;;9.74;100.00;101425.53;2088697;28;20249;-63
2024/02/05 00:57:34;;;;;;;4.53;1.77;;;;;;;10.34;100.00;101528.31;2088968;28;20621;-64
2024/02/05 00:58:35;;;;;;;2.77;1.40;;;;;;;10.02;100.00;101471.59;2088245;28;20349;-64
2024/02/05 00:59:35;;;;;;;3.23;1.50;;;;;;;10.35;100.00;101518.03;2089009;28;20226;-64
2024/02/05 01:00:36;;;;;;;7.77;1.77;;;;;;;10.35;100.00;101527.13;2088756;28;20624;-64
2024/02/05 01:01:36;;;;;;;3.33;1.80;;;;;;;10.35;100.00;101521.56;2088141;28;20351;-64
2024/02/05 01:02:37;;;;;;;3.37;2.03;;;;;;;10.33;100.00;101521.22;2087894;28;20707;-64
2024/02/05 01:03:38;;;;;;;3.40;1.60;;;;;;;10.27;100.00;101517.31;2089105;28;20180;-65
2024/02/05 01:04:39;;;;;;;3.13;1.43;;;;;;;9.68;100.00;101431.91;2088925;28;20180;-64
2024/02/05 01:05:40;;;;;;;3.70;1.70;;;;;;;10.14;100.00;101512.69;2089205;28;20435;-64
2024/02/05 01:06:41;;;;;;;2.93;1.30;;;;;;;10.07;100.00;101513.50;2088413;28;20445;-64
2024/02/05 01:07:42;;;;;;;3.17;1.87;;;;;;;9.96;100.00;101506.44;2088062;28;20476;-64
2024/02/05 01:08:42;;;;;;;2.37;1.50;;;;;;;9.79;100.00;101490.75;2087336;28;20581;-64
2024/02/05 01:09:43;;;;;;;2.00;1.37;;;;;;;9.91;100.00;101502.13;2088840;28;20603;-64
2024/02/05 01:10:43;;;;;;;3.80;1.47;;;;;;;9.87;100.00;101504.13;2088846;28;20175;-64
2024/02/05 01:11:44;;;;;;;3.50;1.40;;;;;;;9.85;100.00;101491.91;2088643;28;20179;-64
2024/02/05 01:12:44;;;;;;;3.13;1.50;;;;;;;9.83;100.00;101503.38;2089346;28;20192;-64
2024/02/05 01:13:45;;;;;;;2.90;1.50;;;;;;;9.84;100.00;101502.16;2088121;28;20494;-64
2024/02/05 01:14:45;;;;;;;4.50;1.27;;;;;;;9.81;100.00;101500.22;2088180;28;20195;-64
2024/02/05 01:15:46;;;;;;;3.93;1.70;;;;;;;9.80;100.00;101489.56;2087911;28;20202;-64
2024/02/05 01:16:46;;;;;;;2.10;1.47;;;;;;;9.79;100.00;101482.44;2087154;28;20211;-64
2024/02/05 01:17:47;;;;;;;2.83;1.23;;;;;;;9.52;100.00;101445.44;2088957;28;20191;-64
2024/02/05 01:18:47;;;;;;;2.80;1.50;;;;;;;9.73;100.00;101490.38;2088580;28;20549;-64
2024/02/05 01:19:50;;;;;;;3.20;1.47;;;;;;;9.77;100.00;101491.16;2089070;28;20177;-64
2024/02/05 01:20:51;;;;;;;2.67;1.67;;;;;;;9.80;100.00;101486.78;2088264;28;20219;-64
2024/02/05 01:21:52;;;;;;;2.60;1.60;;;;;;;9.83;100.00;101485.97;2088364;28;20470;-64
2024/02/05 01:22:53;;;;;;;3.07;1.83;;;;;;;9.91;100.00;101481.97;2089111;28;20462;-64
2024/02/05 01:23:53;;;;;;;2.50;1.50;;;;;;;9.91;100.00;101488.28;2087427;28;20191;-64
2024/02/05 01:24:54;;;;;;;1.53;1.00;;;;;;;9.93;100.00;101491.44;2089036;28;20279;-64
2024/02/05 01:25:54;;;;;;;1.77;1.07;;;;;;;9.92;100.00;101498.16;2088966;28;20220;-64
2024/02/05 01:26:55;;;;;;;2.20;1.37;;;;;;;9.93;100.00;101493.41;2088519;28;20636;-64
2024/02/05 01:27:55;;;;;;;1.93;1.40;;;;;;;9.78;100.00;101473.34;2088846;28;20418;-64
2024/02/05 01:28:56;;;;;;;2.13;1.53;;;;;;;9.68;100.00;101456.81;2088030;28;20181;-64
2024/02/05 01:29:56;;;;;;;2.90;1.47;;;;;;;9.97;100.00;101489.44;2088746;28;20266;-64
2024/02/05 01:30:57;;;;;;;3.07;1.80;;;;;;;10.00;100.00;101482.28;2088996;28;20514;-64
2024/02/05 01:31:57;;;;;;;2.33;1.30;;;;;;;9.99;100.00;101478.72;2088790;28;20231;-64
2024/02/05 01:32:58;;;;;;;2.70;1.50;;;;;;;9.03;100.00;101326.84;2088827;28;20206;-64
2024/02/05 01:33:59;;;;;;;2.80;1.50;;;;;;;10.00;100.00;101473.97;2088719;28;20197;-64
2024/02/05 01:35:00;;;;;;;2.70;1.57;;;;;;;9.86;100.00;101455.50;2088106;28;20745;-64
2024/02/05 01:36:01;;;;;;;2.63;1.40;;;;;;;9.93;100.00;101465.72;2088477;28;20544;-64
2024/02/05 01:37:01;;;;;;;2.97;1.43;;;;;;;10.04;100.00;101472.00;2088053;28;20451;-64
2024/02/05 01:38:02;;;;;;;2.50;1.30;;;;;;;10.01;100.00;101473.59;2087887;28;20194;-64
2024/02/05 01:39:04;;;;;;;4.37;1.70;;;;;;;10.05;100.00;101479.13;2088414;28;20220;-64
2024/02/05 01:40:12;;;;;;;4.37;1.63;;;;;;;10.04;100.00;101460.94;2088189;28;20665;-64
2024/02/05 01:41:12;;;;;;;3.50;1.60;;;;;;;10.06;100.00;101455.75;2088938;28;20442;-64
2024/02/05 01:42:14;;;;;;;2.23;1.30;;;;;;;10.12;100.00;101452.16;2088764;28;20436;-65
2024/02/05 01:43:16;;;;;;;2.33;1.53;;;;;;;10.04;100.00;101450.63;2088596;28;20312;-64
2024/02/05 01:44:16;;;;;;;1.20;1.00;;;;;;;9.94;100.00;101432.09;2087586;28;20493;-64
2024/02/05 01:45:17;;;;;;;3.13;1.50;;;;;;;10.14;100.00;101448.97;2087356;28;20465;-64
2024/02/05 01:46:22;;;;;;;1.70;1.20;;;;;;;10.20;100.00;101444.56;2087490;28;20241;-64
2024/02/05 01:47:22;;;;;;;2.30;1.37;;;;;;;10.22;100.00;101451.25;2088242;28;20220;-64
2024/02/05 01:48:27;;;;;;;2.60;1.43;;;;;;;10.28;100.00;101454.38;2088381;28;20437;-64
2024/02/05 01:49:27;;;;;;;3.90;1.50;;;;;;;10.27;100.00;101450.81;2088218;28;20198;-65
2024/02/05 01:50:28;;;;;;;2.50;1.63;;;;;;;10.28;100.00;101457.13;2087760;28;20461;-64
2024/02/05 01:51:32;;;;;;;3.33;1.80;;;;;;;9.63;100.00;101355.63;2087873;28;20187;-64
2024/02/05 01:52:39;;;;;;;3.17;1.80;;;;;;;10.07;100.00;101433.19;2088270;28;20369;-63
2024/02/05 01:53:41;;;;;;;2.60;1.60;;;;;;;10.21;100.00;101458.00;2088265;28;20440;-64
2024/02/05 01:54:42;;;;;;;2.90;1.60;;;;;;;10.20;100.00;101458.41;2088218;28;20445;-64
2024/02/05 01:55:45;;;;;;;2.77;1.60;;;;;;;10.29;100.00;101464.25;2088391;28;20422;-64
2024/02/05 01:56:46;;;;;;;2.80;1.57;;;;;;;10.27;100.00;101464.69;2088171;28;20426;-64
2024/02/05 01:57:46;;;;;;;2.80;1.50;;;;;;;10.27;100.00;101450.03;2087724;28;20516;-64
2024/02/05 01:58:47;;;;;;;2.40;1.47;;;;;;;10.29;100.00;101451.19;2088157;28;20944;-64
2024/02/05 01:59:48;;;;;;;4.87;1.77;;;;;;;10.28;100.00;101451.59;2088876;28;20203;-64
2024/02/05 02:00:49;;;;;;;4.33;1.60;;;;;;;10.22;100.00;101456.00;2088753;28;20693;-64
2024/02/05 02:01:50;;;;;;;2.70;1.80;;;;;;;10.13;100.00;101444.59;2088687;28;20880;-65
2024/02/05 02:02:51;;;;;;;3.47;2.10;;;;;;;10.05;100.00;101440.34;2088453;28;20274;-63
2024/02/05 02:03:52;;;;;;;5.30;1.57;;;;;;;10.01;100.00;101434.81;2088147;28;20508;-65
2024/02/05 02:04:55;;;;;;;2.40;1.73;;;;;;;10.01;100.00;101434.00;2087861;28;20539;-64
2024/02/05 02:05:56;;;;;;;2.93;1.60;;;;;;;9.92;100.00;101423.41;2088031;28;20418;-64
2024/02/05 02:06:57;;;;;;;2.70;1.50;;;;;;;10.00;100.00;101430.44;2088140;28;20509;-64
2024/02/05 02:07:57;;;;;;;4.23;1.97;;;;;;;10.01;100.00;101434.00;2088678;28;20183;-64
2024/02/05 02:08:59;;;;;;;3.33;1.60;;;;;;;9.98;100.00;101432.03;2088543;28;20180;-63
2024/02/05 02:10:04;;;;;;;2.60;1.50;;;;;;;9.99;100.00;101437.19;2088563;28;20439;-64
2024/02/05 02:11:04;;;;;;;2.57;1.53;;;;;;;10.00;100.00;101424.13;2088701;28;20732;-64
2024/02/05 02:12:06;;;;;;;4.03;2.00;;;;;;;9.99;100.00;101437.19;2087588;28;20965;-64
2024/02/05 02:13:06;;;;;;;3.43;1.60;;;;;;;9.97;100.00;101449.88;2088419;28;20192;-64
2024/02/05 02:14:08;;;;;;;2.17;1.50;;;;;;;9.97;100.00;101452.63;2087605;28;20538;-64
2024/02/05 02:15:08;;;;;;;3.07;1.70;;;;;;;9.96;100.00;101460.16;2086877;28;20196;-64
2024/02/05 02:16:16;;;;;;;3.70;1.70;;;;;;;9.64;100.00;101418.09;2087947;28;20425;-64
2024/02/05 02:17:19;;;;;;;2.77;1.57;;;;;;;9.88;100.00;101463.38;2088312;28;20186;-64
2024/02/05 02:18:22;;;;;;;2.57;1.70;;;;;;;9.88;100.00;101472.47;2088277;28;20965;-63
2024/02/05 02:19:41;;;;;;;3.40;1.83;;;;;;;9.90;100.00;101469.31;2086787;28;20568;-64
2024/02/05 02:20:45;;;;;;;4.23;1.63;;;;;;;9.51;100.00;101410.69;2087232;28;20456;-64
2024/02/05 02:21:52;;;;;;;2.97;1.90;;;;;;;9.93;100.00;101468.47;2088234;28;20434;-64
2024/02/05 02:23:07;;;;;;;3.73;1.60;;;;;;;9.46;100.00;101403.59;2088942;28;20429;-64
2024/02/05 02:24:08;;;;;;;3.77;1.47;;;;;;;10.01;100.00;101468.03;2087738;28;20421;-64
2024/02/05 02:25:09;;;;;;;3.07;1.50;;;;;;;10.01;100.00;101495.72;2088712;28;20417;-64
2024/02/05 02:26:10;;;;;;;1.83;1.20;;;;;;;10.05;100.00;101451.41;2087572;28;20569;-64
2024/02/05 02:27:11;;;;;;;2.10;1.17;;;;;;;10.04;100.00;101449.84;2087034;28;20439;-64
2024/02/05 02:28:11;;;;;;;2.50;1.43;;;;;;;10.05;100.00;101438.34;2087878;28;20191;-64
2024/02/05 02:29:12;;;;;;;4.20;1.57;;;;;;;10.11;100.00;101433.16;2088601;28;20188;-64
2024/02/05 02:30:16;;;;;;;4.50;1.43;;;;;;;10.13;100.00;101433.53;2087622;28;20203;-64
2024/02/05 02:31:20;;;;;;;1.53;1.10;;;;;;;10.13;100.00;101431.56;2086997;28;20195;-64
2024/02/05 02:32:29;;;;;;;3.10;1.60;;;;;;;10.13;100.00;101436.28;2087742;28;20846;-64
2024/02/05 02:33:48;;;;;;;3.03;1.30;;;;;;;10.20;100.00;101442.56;2087758;28;20411;-64
2024/02/05 02:34:52;;;;;;;3.63;1.50;;;;;;;9.82;100.00;101388.28;2088388;28;21067;-64
2024/02/05 02:36:11;;;;;;;2.83;1.63;;;;;;;10.17;100.00;101434.28;2088164;28;20437;-64
2024/02/05 02:37:13;;;;;;;2.57;1.57;;;;;;;9.47;100.00;101326.91;2088080;28;20439;-64
2024/02/05 02:38:19;;;;;;;2.47;1.33;;;;;;;10.15;100.00;101433.91;2086930;28;20541;-64
2024/02/05 02:39:24;;;;;;;2.97;1.47;;;;;;;10.16;100.00;101444.59;2088176;28;20454;-64
2024/02/05 02:40:26;;;;;;;2.80;1.70;;;;;;;10.12;100.00;101459.66;2086770;28;20462;-64
2024/02/05 02:41:31;;;;;;;1.83;1.23;;;;;;;10.08;100.00;101456.94;2088315;28;20932;-64
2024/02/05 02:42:34;;;;;;;1.73;1.43;;;;;;;10.05;100.00;101454.19;2088013;28;20434;-64
2024/02/05 02:43:39;;;;;;;3.37;1.27;;;;;;;10.11;100.00;101460.84;2088707;28;20437;-64
2024/02/05 02:44:41;;;;;;;2.80;1.50;;;;;;;10.17;100.00;101465.56;2088303;28;20414;-65
2024/02/05 02:45:44;;;;;;;2.90;1.50;;;;;;;10.19;100.00;101462.38;2087751;28;20829;-64
2024/02/05 02:46:45;;;;;;;2.60;1.30;;;;;;;10.17;100.00;101465.56;2085943;28;20447;-64
2024/02/05 02:47:46;;;;;;;2.90;1.70;;;;;;;10.15;100.00;101459.63;2087339;28;20452;-64
2024/02/05 02:48:46;;;;;;;3.53;1.77;;;;;;;10.18;100.00;101460.78;2087270;28;20526;-64
2024/02/05 02:49:48;;;;;;;3.37;1.70;;;;;;;10.23;100.00;101457.56;2088144;28;20188;-64
2024/02/05 02:50:48;;;;;;;3.30;1.63;;;;;;;10.27;100.00;101461.09;2087981;28;20187;-64
2024/02/05 02:51:49;;;;;;;2.60;1.70;;;;;;;10.28;100.00;101449.63;2088004;28;20433;-64
2024/02/05 02:52:49;;;;;;;2.83;1.57;;;;;;;10.30;100.00;101461.06;2088376;28;20241;-64
2024/02/05 02:53:50;;;;;;;1.93;1.57;;;;;;;9.89;100.00;101407.59;2087406;28;20185;-64
2024/02/05 02:54:51;;;;;;;2.50;1.67;;;;;;;10.24;100.00;101457.16;2086851;28;20666;-64
2024/02/05 02:55:51;;;;;;;2.87;1.60;;;;;;;9.85;100.00;101389.47;2087913;28;20196;-64
2024/02/05 02:56:52;;;;;;;2.73;1.50;;;;;;;10.26;100.00;101457.53;2087557;28;20195;-65
2024/02/05 02:57:52;;;;;;;3.83;2.07;;;;;;;10.30;100.00;101449.97;2088104;28;20195;-63
2024/02/05 02:58:53;;;;;;;3.23;2.00;;;;;;;10.26;100.00;101448.47;2087880;28;20876;-65
2024/02/05 02:59:54;;;;;;;4.53;1.90;;;;;;;10.26;100.00;101446.47;2087104;28;20173;-64
2024/02/05 03:00:56;;;;;;;4.43;2.00;;;;;;;10.29;100.00;101442.88;2088402;28;20610;-64
2024/02/05 03:01:56;;;;;;;3.50;1.90;;;;;;;10.33;100.00;101446.41;2087771;28;20466;-64
2024/02/05 03:02:57;;;;;;;3.80;2.00;;;;;;;10.35;100.00;101460.63;2087274;28;20451;-64
2024/02/05 03:03:57;;;;;;;4.00;2.37;;;;;;;10.35;100.00;101460.63;2087389;28;20303;-64
2024/02/05 03:04:59;;;;;;;3.30;1.83;;;;;;;10.35;100.00;101462.63;2086189;28;20218;-64
2024/02/05 03:05:59;;;;;;;5.20;2.40;;;;;;;10.39;100.00;101464.16;2088110;28;20735;-64
2024/02/05 03:06:59;;;;;;;3.03;2.00;;;;;;;10.33;100.00;101454.72;2087575;28;20879;-64
2024/02/05 03:08:00;;;;;;;3.63;1.80;;;;;;;10.35;100.00;101459.84;2087519;28;20556;-64
2024/02/05 03:09:00;;;;;;;4.60;2.13;;;;;;;10.29;100.00;101456.72;2087597;28;20183;-64
2024/02/05 03:10:05;;;;;;;2.90;1.90;;;;;;;10.21;100.00;101462.75;2088316;28;20210;-64
2024/02/05 03:11:05;;;;;;;2.83;1.87;;;;;;;10.14;100.00;101458.06;2088626;28;20189;-64
2024/02/05 03:12:06;;;;;;;2.37;1.83;;;;;;;10.11;100.00;101455.31;2087778;28;20524;-64
2024/02/05 03:13:07;;;;;;;2.53;1.50;;;;;;;9.77;100.00;101393.47;2087326;28;20652;-64
2024/02/05 03:14:07;;;;;;;4.87;2.27;;;;;;;10.14;100.00;101437.91;2087029;28;20195;-64
2024/02/05 03:15:08;;;;;;;8.43;1.93;;;;;;;10.09;100.00;101441.88;2087542;28;20184;-64
2024/02/05 03:16:08;;;;;;;2.60;1.60;;;;;;;10.05;100.00;101446.66;2087900;28;20176;-64
2024/02/05 03:17:09;;;;;;;3.83;2.07;;;;;;;9.90;100.00;101439.63;2086901;28;20208;-64
2024/02/05 03:18:10;;;;;;;3.93;2.17;;;;;;;10.10;100.00;101460.06;2086648;28;20176;-64
2024/02/05 03:19:10;;;;;;;3.50;2.30;;;;;;;10.07;100.00;101460.09;2088676;28;20183;-64
2024/02/05 03:20:40;;;;;;;3.03;2.00;;;;;;;10.09;100.00;101457.72;2087255;28;20209;-64
2024/02/05 03:21:40;;;;;;;4.13;2.20;;;;;;;9.98;100.00;101463.31;2086515;28;20228;-64
2024/02/05 03:22:41;;;;;;;5.93;2.70;;;;;;;9.98;100.00;101468.03;2088287;28;20514;-64
2024/02/05 03:23:43;;;;;;;4.73;2.40;;;;;;;9.93;100.00;101468.47;2086554;28;20192;-64
2024/02/05 03:24:44;;;;;;;3.67;1.93;;;;;;;9.30;100.00;101372.09;2087373;28;20316;-64
2024/02/05 03:25:45;;;;;;;4.93;2.43;;;;;;;9.87;100.00;101475.66;2087900;28;20965;-64
2024/02/05 03:26:45;;;;;;;4.80;2.27;;;;;;;9.89;100.00;101473.28;2087183;28;20196;-64
2024/02/05 03:27:46;;;;;;;6.50;2.30;;;;;;;8.71;100.00;101282.81;2087959;28;20655;-64
2024/02/05 03:28:46;;;;;;;2.83;2.00;;;;;;;9.57;100.00;101422.88;2086906;28;20189;-64
2024/02/05 03:29:47;;;;;;;4.67;1.93;;;;;;;9.90;100.00;101472.09;2087134;28;20206;-64
2024/02/05 03:30:47;;;;;;;3.27;2.10;;;;;;;9.94;100.00;101475.63;2087628;28;20182;-64
2024/02/05 03:31:48;;;;;;;5.83;2.07;;;;;;;9.95;100.00;101474.41;2088296;28;20177;-64
2024/02/05 03:32:49;;;;;;;3.83;2.33;;;;;;;9.96;100.00;101479.56;2088091;28;20562;-64
2024/02/05 03:33:49;;;;;;;4.20;1.83;;;;;;;9.94;100.00;101484.69;2087822;28;20187;-64
2024/02/05 03:34:50;;;;;;;3.63;1.43;;;;;;;9.73;100.00;101468.25;2087840;28;20436;-64
2024/02/05 03:35:50;;;;;;;3.67;2.40;;;;;;;9.92;100.00;101492.63;2087206;28;20198;-64
2024/02/05 03:36:51;;;;;;;5.70;2.10;;;;;;;9.92;100.00;101494.59;2087545;28;20188;-64
2024/02/05 03:37:51;;;;;;;6.43;2.00;;;;;;;9.95;100.00;101494.56;2087775;28;20211;-64
2024/02/05 03:38:52;;;;;;;3.87;2.07;;;;;;;9.95;100.00;101502.88;2087025;28;20177;-64
2024/02/05 03:39:52;;;;;;;3.60;2.10;;;;;;;9.94;100.00;101506.84;2088434;28;20234;-64
2024/02/05 03:40:53;;;;;;;3.40;2.00;;;;;;;9.89;100.00;101498.97;2087520;28;20685;-63
2024/02/05 03:41:53;;;;;;;5.17;2.30;;;;;;;9.82;100.00;101487.97;2087502;28;20264;-64
2024/02/05 03:42:54;;;;;;;3.77;2.00;;;;;;;9.78;100.00;101483.66;2087979;28;20194;-64
2024/02/05 03:43:55;;;;;;;5.23;2.40;;;;;;;9.77;100.00;101485.63;2086576;28;20241;-64
2024/02/05 03:44:55;;;;;;;4.60;2.10;;;;;;;9.80;100.00;101501.44;2087595;28;20188;-64
2024/02/05 03:45:56;;;;;;;2.80;1.57;;;;;;;9.75;100.00;101503.81;2088002;28;20187;-64
2024/02/05 03:46:56;;;;;;;4.80;2.47;;;;;;;9.37;100.00;101447.53;2086933;28;20194;-64
2024/02/05 03:47:57;;;;;;;3.27;1.60;;;;;;;9.71;100.00;101517.69;2088244;28;20525;-64
2024/02/05 03:48:58;;;;;;;3.27;1.70;;;;;;;9.75;100.00;101507.38;2087124;28;20686;-64
2024/02/05 03:49:59;;;;;;;4.87;1.90;;;;;;;9.75;100.00;101506.59;2087855;28;20196;-64
2024/02/05 03:51:00;;;;;;;2.43;1.50;;;;;;;9.68;100.00;101501.88;2087916;28;20437;-64
2024/02/05 03:52:00;;;;;;;2.50;1.70;;;;;;;9.73;100.00;101497.91;2087692;28;20196;-64
2024/02/05 03:53:02;;;;;;;3.97;1.90;;;;;;;9.74;100.00;101503.03;2088927;28;20219;-64
2024/02/05 03:54:05;;;;;;;3.20;1.73;;;;;;;9.71;100.00;101494.75;2089282;28;20318;-64
2024/02/05 03:55:06;;;;;;;3.90;2.17;;;;;;;9.75;100.00;101498.28;2089285;28;21026;-64
2024/02/05 03:56:09;;;;;;;4.60;1.90;;;;;;;9.57;100.00;101465.19;2088280;28;20819;-64
2024/02/05 03:57:09;;;;;;;2.60;1.80;;;;;;;9.76;100.00;101502.63;2089315;28;20187;-65
2024/02/05 03:58:10;;;;;;;3.67;1.80;;;;;;;9.83;100.00;101484.00;2089231;28;20424;-64
2024/02/05 03:59:10;;;;;;;4.07;1.80;;;;;;;9.85;100.00;101484.34;2089448;28;21089;-64
2024/02/05 04:00:12;;;;;;;2.97;1.53;;;;;;;9.81;100.00;101497.47;2089753;28;20210;-64
2024/02/05 04:01:13;;;;;;;3.03;1.87;;;;;;;9.37;100.00;101428.16;2089117;28;20283;-64
2024/02/05 04:02:13;;;;;;;2.57;1.57;;;;;;;9.78;100.00;101503.78;2088465;28;20616;-65
2024/02/05 04:03:14;;;;;;;4.37;1.47;;;;;;;9.60;100.00;101480.19;2088626;28;20204;-64
2024/02/05 04:04:15;;;;;;;3.77;1.70;;;;;;;9.80;100.00;101495.09;2088907;28;20188;-64
2024/02/05 04:05:16;;;;;;;3.00;1.57;;;;;;;9.81;100.00;101499.44;2089735;28;20188;-64
2024/02/05 04:06:16;;;;;;;2.70;1.40;;;;;;;9.79;100.00;101499.06;2089610;28;20966;-64
2024/02/05 04:07:17;;;;;;;2.80;1.70;;;;;;;9.81;100.00;101496.66;2088780;28;20242;-65
2024/02/05 04:08:17;;;;;;;3.10;1.67;;;;;;;9.57;100.00;101464.38;2087729;28;20389;-64
2024/02/05 04:09:18;;;;;;;2.87;1.57;;;;;;;9.81;100.00;101493.91;2088023;28;20189;-64
2024/02/05 04:10:18;;;;;;;2.40;1.43;;;;;;;9.81;100.00;101489.16;2089350;28;20180;-64
2024/02/05 04:11:19;;;;;;;2.60;1.53;;;;;;;9.79;100.00;101493.53;2089068;28;20273;-64
2024/02/05 04:12:19;;;;;;;2.00;1.23;;;;;;;9.81;100.00;101489.16;2089606;28;20189;-64
2024/02/05 04:13:20;;;;;;;2.90;1.30;;;;;;;9.83;100.00;101485.97;2088764;28;20186;-64
2024/02/05 04:14:21;;;;;;;3.87;1.60;;;;;;;9.52;100.00;101437.16;2089734;28;20256;-64
2024/02/05 04:15:21;;;;;;;5.13;1.80;;;;;;;9.34;100.00;101406.84;2089289;28;20185;-64
2024/02/05 04:16:22;;;;;;;2.10;1.43;;;;;;;9.70;100.00;101485.69;2089560;28;20955;-65
2024/02/05 04:17:23;;;;;;;5.90;1.87;;;;;;;9.84;100.00;101485.56;2089336;28;20707;-65
2024/02/05 04:18:24;;;;;;;4.10;1.80;;;;;;;9.91;100.00;101487.50;2088624;28;20612;-64
2024/02/05 04:19:25;;;;;;;3.13;1.70;;;;;;;9.23;100.00;101397.81;2089189;28;20488;-64
2024/02/05 04:20:25;;;;;;;3.30;1.87;;;;;;;9.72;100.00;101466.66;2088765;28;20188;-64
2024/02/05 04:21:26;;;;;;;5.50;1.60;;;;;;;9.92;100.00;101484.31;2089058;28;20183;-64
2024/02/05 04:22:26;;;;;;;2.80;1.93;;;;;;;9.10;100.00;101354.44;2089259;28;20590;-64
2024/02/05 04:23:28;;;;;;;3.07;1.70;;;;;;;9.88;100.00;101485.53;2089602;28;20651;-64
2024/02/05 04:24:28;;;;;;;3.63;1.70;;;;;;;9.86;100.00;101493.47;2088058;28;20709;-64
2024/02/05 04:25:29;;;;;;;4.23;1.77;;;;;;;9.84;100.00;101484.78;2088647;28;20900;-64
2024/02/05 04:26:29;;;;;;;3.87;1.50;;;;;;;9.84;100.00;101479.25;2089417;28;20684;-64
2024/02/05 04:27:30;;;;;;;3.07;1.30;;;;;;;9.84;100.00;101482.78;2088738;28;20275;-64
2024/02/05 04:28:33;;;;;;;5.43;1.80;;;;;;;9.83;100.00;101480.41;2088411;28;20186;-64
2024/02/05 04:29:34;;;;;;;3.03;1.60;;;;;;;9.73;100.00;101456.41;2088962;28;20213;-64
2024/02/05 04:30:37;;;;;;;3.60;1.80;;;;;;;9.82;100.00;101476.88;2089095;28;20435;-64
2024/02/05 04:31:37;;;;;;;2.83;1.43;;;;;;;9.78;100.00;101473.34;2088873;28;20184;-64
2024/02/05 04:32:38;;;;;;;2.40;1.30;;;;;;;9.73;100.00;101475.78;2089132;28;20523;-64
2024/02/05 04:33:40;;;;;;;2.67;1.50;;;;;;;9.69;100.00;101475.78;2088127;28;20196;-64
2024/02/05 04:34:40;;;;;;;3.57;1.60;;;;;;;9.73;100.00;101470.25;2087079;28;20675;-64
2024/02/05 04:35:41;;;;;;;3.30;1.67;;;;;;;9.68;100.00;101474.22;2088711;28;20795;-64
2024/02/05 04:36:41;;;;;;;4.40;1.20;;;;;;;9.71;100.00;101469.84;2088729;28;20239;-64
2024/02/05 04:37:42;;;;;;;2.17;1.60;;;;;;;9.76;100.00;101461.09;2089120;28;20183;-64
2024/02/05 04:38:43;;;;;;;2.77;1.27;;;;;;;9.73;100.00;101470.25;2088086;28;20249;-65
2024/02/05 04:39:44;;;;;;;3.33;1.63;;;;;;;9.75;100.00;101462.31;2088973;28;20427;-64
2024/02/05 04:40:45;;;;;;;2.57;1.60;;;;;;;9.78;100.00;101462.28;2089417;28;20542;-64
2024/02/05 04:41:45;;;;;;;3.20;1.50;;;;;;;9.74;100.00;101447.66;2088979;28;20185;-64
2024/02/05 04:42:46;;;;;;;2.17;1.20;;;;;;;9.81;100.00;101458.69;2088714;28;20199;-64
2024/02/05 04:43:46;;;;;;;2.00;1.50;;;;;;;9.81;100.00;101452.38;2088558;28;20185;-64
2024/02/05 04:44:47;;;;;;;2.53;1.47;;;;;;;9.84;100.00;101451.56;2089276;28;20678;-64